AMS weather

Amsterdam Airport Schiphol
Amsterdam, Noord-Holland, Netherlands

Public forecast

Using degrees Celsius for public forecast. Weather courtesy of forecast.io.

METAR (pilot weather report)

Retrieved 2018/01/21 00:25 UTC (32 minutes ago):

EHAM 210025Z 30007KT 9999 FEW025 01/M00 Q1006 NOSIG

TAF (pilot weather forecast)

Forecast is more than 12 hours old.

Retrieved 2018/01/20 00:27 UTC (1 day ago):

TAF TAF EHAM 202319Z 2100/2206 31009KT 9999 SCT025 BECMG 2110/2113 24006KT BECMG 2118/2121 16013KT 6000 -RA BKN015 BECMG 2120/2122 SCT008 BKN012 TEMPO 2121/2124 3500 RA BECMG 2122/2124 SCT004 BKN006 BECMG 2200/2203 19010KT 4000 BR PROB40 2200/2206 1500 -DZ SCT002 BKN003 BECMG 2203/2206 29010KT